createdAt,value
2019-03-08T00:02:25.257Z,99.90
2019-03-08T00:05:09.643Z,99.90
2019-03-08T00:07:55.405Z,99.90
2019-03-08T00:10:38.940Z,99.90
2019-03-08T00:13:23.717Z,99.90
2019-03-08T00:16:09.188Z,99.90
2019-03-08T00:18:54.199Z,99.90
2019-03-08T00:21:37.654Z,99.90
2019-03-08T00:24:23.056Z,99.90
2019-03-08T00:26:55.196Z,99.90
2019-03-08T00:29:40.032Z,99.90
2019-03-08T00:32:24.942Z,99.90
2019-03-08T00:35:09.458Z,99.90
2019-03-08T00:37:54.015Z,99.90
2019-03-08T00:40:38.599Z,99.90
2019-03-08T00:43:23.155Z,99.90
2019-03-08T00:46:08.217Z,99.90
2019-03-08T00:48:52.969Z,99.90
2019-03-08T00:54:44.901Z,99.90
2019-03-08T00:57:31.171Z,99.90
2019-03-08T01:00:15.939Z,99.90
2019-03-08T01:03:00.614Z,99.90
2019-03-08T01:05:44.268Z,99.90
2019-03-08T01:08:28.414Z,99.90
2019-03-08T01:11:13.195Z,99.90
2019-03-08T01:13:58.073Z,99.90
2019-03-08T01:16:43.386Z,99.90
2019-03-08T01:19:28.060Z,99.90
2019-03-08T01:22:12.396Z,99.90
2019-03-08T01:24:57.251Z,99.90
2019-03-08T01:28:04.304Z,99.90
2019-03-08T01:30:48.566Z,99.90
2019-03-08T01:33:34.800Z,99.90
2019-03-08T01:36:18.349Z,99.90
2019-03-08T01:39:04.504Z,99.90
2019-03-08T01:41:38.054Z,99.90
2019-03-08T01:44:36.318Z,99.90
2019-03-08T01:52:49.424Z,99.90
2019-03-08T01:55:33.444Z,99.90
2019-03-08T01:58:18.978Z,99.90
2019-03-08T02:01:02.961Z,99.90
2019-03-08T02:03:47.406Z,99.90
2019-03-08T02:06:32.395Z,99.90
2019-03-08T02:09:16.439Z,99.90
2019-03-08T02:12:00.976Z,99.90
2019-03-08T02:14:44.954Z,99.90
2019-03-08T02:17:29.504Z,99.90
2019-03-08T02:20:14.977Z,99.90
2019-03-08T02:22:59.623Z,99.90
2019-03-08T02:25:45.571Z,99.90
2019-03-08T02:28:31.064Z,99.90
2019-03-08T02:31:16.207Z,99.90
2019-03-08T02:34:01.481Z,99.90
2019-03-08T02:36:46.185Z,99.90
2019-03-08T02:39:30.680Z,99.90
2019-03-08T02:42:15.183Z,99.90
2019-03-08T02:44:59.135Z,99.90
2019-03-08T02:47:43.806Z,99.90
2019-03-08T02:50:27.640Z,99.90
2019-03-08T02:53:13.576Z,99.90
2019-03-08T02:55:59.066Z,99.90
2019-03-08T02:58:44.412Z,99.90
2019-03-08T03:01:28.959Z,99.90
2019-03-08T03:04:13.598Z,99.90
2019-03-08T03:06:58.961Z,99.90
2019-03-08T03:09:42.883Z,99.90
2019-03-08T03:12:27.887Z,99.90
2019-03-08T03:15:13.441Z,99.90
2019-03-08T03:17:59.461Z,99.90
2019-03-08T03:20:43.053Z,99.90
2019-03-08T03:23:29.873Z,99.90
2019-03-08T03:26:15.341Z,99.90
2019-03-08T03:29:01.633Z,99.90
2019-03-08T03:31:47.096Z,99.90
2019-03-08T03:37:21.650Z,99.90
2019-03-08T03:40:07.540Z,99.90
2019-03-08T03:42:53.570Z,99.90
2019-03-08T03:45:38.057Z,99.90
2019-03-08T03:48:23.015Z,99.90
2019-03-08T03:53:35.159Z,99.90
2019-03-08T03:56:20.255Z,99.90
2019-03-08T03:59:04.396Z,99.90
2019-03-08T04:01:50.230Z,99.90
2019-03-08T04:04:35.649Z,99.90
2019-03-08T04:07:08.993Z,99.90
2019-03-08T04:09:54.230Z,99.90
2019-03-08T04:12:26.355Z,99.90
2019-03-08T04:15:11.908Z,99.90
2019-03-08T04:17:57.729Z,99.90
2019-03-08T04:20:42.993Z,99.90
2019-03-08T04:23:27.695Z,99.90
2019-03-08T04:26:11.809Z,99.90
2019-03-08T04:28:56.721Z,99.90
2019-03-08T04:31:42.761Z,99.90
2019-03-08T04:34:26.666Z,99.90
2019-03-08T04:37:11.452Z,99.90
2019-03-08T04:39:55.358Z,99.90
2019-03-08T04:42:40.421Z,99.90
2019-03-08T04:45:25.367Z,99.90
2019-03-08T04:48:11.521Z,99.90
2019-03-08T04:50:56.769Z,99.90
2019-03-08T04:53:42.117Z,99.90
2019-03-08T04:56:27.248Z,99.90
2019-03-08T04:59:13.342Z,99.90
2019-03-08T05:01:58.183Z,99.90
2019-03-08T05:04:30.767Z,99.90
2019-03-08T05:07:16.496Z,99.90
2019-03-08T05:13:07.149Z,99.90
2019-03-08T05:15:51.632Z,99.90
2019-03-08T05:18:36.414Z,99.90
2019-03-08T05:21:20.583Z,99.90
2019-03-08T05:24:05.485Z,99.90
2019-03-08T05:26:49.090Z,99.90
2019-03-08T05:29:34.063Z,99.90
2019-03-08T05:32:19.762Z,99.90
2019-03-08T05:35:05.257Z,99.90
2019-03-08T05:37:49.075Z,99.90
2019-03-08T05:40:33.859Z,99.90
2019-03-08T05:43:17.878Z,99.90
2019-03-08T05:46:03.234Z,99.90
2019-03-08T05:48:48.346Z,99.90
2019-03-08T05:51:34.488Z,99.90
2019-03-08T05:54:19.768Z,99.90
2019-03-08T05:57:03.898Z,99.90
2019-03-08T06:02:33.670Z,99.90
2019-03-08T06:05:18.752Z,99.90
2019-03-08T06:08:03.396Z,99.90
2019-03-08T06:10:47.697Z,99.90
2019-03-08T06:13:19.920Z,99.90
2019-03-08T06:16:04.525Z,99.90
2019-03-08T06:21:36.268Z,99.90
2019-03-08T06:24:21.062Z,99.90
2019-03-08T06:27:06.903Z,99.90
2019-03-08T06:29:52.466Z,99.90
2019-03-08T06:32:37.699Z,99.90
2019-03-08T06:35:22.059Z,99.90
2019-03-08T06:38:06.514Z,99.90
2019-03-08T06:40:51.617Z,99.90
2019-03-08T06:43:36.574Z,99.90
2019-03-08T06:46:21.135Z,99.90
2019-03-08T06:49:04.917Z,99.90
2019-03-08T06:51:49.806Z,99.90
2019-03-08T06:54:35.219Z,99.90
2019-03-08T06:57:20.494Z,99.90
2019-03-08T07:00:27.119Z,99.90
2019-03-08T07:03:12.485Z,99.90
2019-03-08T07:08:29.864Z,99.90
2019-03-08T07:11:14.693Z,99.90
2019-03-08T07:13:59.444Z,99.90
2019-03-08T07:16:45.825Z,99.90
2019-03-08T07:19:40.315Z,99.90
2019-03-08T07:22:36.115Z,99.90
2019-03-08T07:25:38.231Z,99.90
2019-03-08T07:28:41.305Z,99.90
2019-03-08T07:31:30.427Z,99.90
2019-03-08T07:34:34.536Z,99.90
2019-03-08T07:37:35.754Z,99.90
2019-03-08T07:43:48.342Z,99.90
2019-03-08T07:49:55.342Z,99.90
2019-03-08T07:52:59.775Z,99.90
2019-03-08T07:55:41.284Z,99.90
2019-03-08T07:58:45.925Z,99.90
2019-03-08T08:01:51.604Z,99.90
2019-03-08T08:05:00.765Z,99.90
2019-03-08T08:07:50.764Z,99.90
2019-03-08T08:10:59.841Z,99.90
2019-03-08T08:13:52.419Z,99.90
2019-03-08T08:16:56.072Z,99.90
2019-03-08T08:20:01.018Z,99.90
2019-03-08T08:23:05.124Z,99.90
2019-03-08T08:29:00.099Z,99.90
2019-03-08T08:31:57.638Z,99.90
2019-03-08T08:35:02.311Z,99.90
2019-03-08T08:38:19.470Z,99.90
2019-03-08T08:41:20.800Z,99.90
2019-03-08T08:47:32.886Z,99.90
2019-03-08T08:50:36.740Z,99.90
2019-03-08T08:56:25.174Z,99.90
2019-03-08T08:59:17.414Z,99.90
2019-03-08T09:05:17.408Z,99.80
2019-03-08T09:08:24.220Z,99.90
2019-03-08T09:11:18.079Z,99.00
2019-03-08T09:14:17.154Z,99.10
2019-03-08T09:20:29.880Z,97.60
2019-03-08T09:23:24.812Z,98.00
2019-03-08T09:26:27.064Z,97.00
2019-03-08T09:32:25.950Z,96.30
2019-03-08T09:35:22.734Z,96.30
2019-03-08T09:38:41.128Z,95.90
2019-03-08T09:41:45.477Z,94.90
2019-03-08T09:44:51.581Z,95.70
2019-03-08T09:48:02.130Z,96.30
2019-03-08T09:51:01.810Z,96.00
2019-03-08T09:53:58.939Z,95.10
2019-03-08T09:57:02.131Z,95.70
2019-03-08T09:59:59.303Z,96.70
2019-03-08T10:09:45.625Z,98.50
2019-03-08T10:12:56.932Z,97.90
2019-03-08T10:16:03.853Z,97.50
2019-03-08T10:22:29.534Z,97.60
2019-03-08T10:25:34.159Z,97.70
2019-03-08T10:28:31.351Z,97.60
2019-03-08T10:35:02.599Z,96.20
2019-03-08T10:38:11.178Z,96.90
2019-03-08T10:41:09.795Z,97.60
2019-03-08T10:44:15.525Z,97.70
2019-03-08T10:47:24.680Z,96.80
2019-03-08T10:53:37.001Z,92.50
2019-03-08T10:59:27.578Z,92.80
2019-03-08T11:05:06.963Z,91.80
2019-03-08T11:08:01.924Z,93.30
2019-03-08T11:11:06.104Z,93.30
2019-03-08T11:16:52.411Z,94.20
2019-03-08T11:23:07.076Z,95.00
2019-03-08T11:26:11.877Z,95.30
2019-03-08T11:29:11.346Z,94.20
2019-03-08T11:32:22.838Z,95.30
2019-03-08T11:35:40.784Z,94.90
2019-03-08T11:38:43.158Z,94.10
2019-03-08T11:47:58.546Z,94.30
2019-03-08T11:54:11.575Z,92.90
2019-03-08T11:57:06.003Z,92.80
2019-03-08T12:00:10.059Z,92.60
2019-03-08T12:03:01.086Z,93.80
2019-03-08T12:06:04.775Z,95.70
2019-03-08T12:12:15.965Z,95.30
2019-03-08T12:15:25.410Z,96.90
2019-03-08T12:18:31.389Z,94.90
2019-03-08T12:21:35.812Z,96.80
2019-03-08T12:27:08.907Z,96.20
2019-03-08T12:30:13.096Z,95.80
2019-03-08T12:36:11.409Z,94.10
2019-03-08T12:39:14.645Z,92.90
2019-03-08T12:42:18.814Z,91.70
2019-03-08T12:45:23.905Z,91.70
2019-03-08T12:51:39.092Z,90.00
2019-03-08T12:54:48.421Z,90.90
2019-03-08T12:57:52.318Z,90.70
2019-03-08T13:00:48.807Z,89.80
2019-03-08T13:03:52.974Z,90.30
2019-03-08T13:06:56.684Z,90.90
2019-03-08T13:09:46.927Z,90.90
2019-03-08T13:12:19.455Z,91.80
2019-03-08T13:15:13.069Z,90.50
2019-03-08T13:17:45.544Z,90.40
2019-03-08T13:20:30.375Z,91.80
2019-03-08T13:23:15.519Z,91.60
2019-03-08T13:26:00.485Z,90.40
2019-03-08T13:34:24.984Z,90.30
2019-03-08T13:36:57.182Z,90.30
2019-03-08T13:39:43.102Z,90.20
2019-03-08T13:42:28.600Z,90.80
2019-03-08T13:45:00.806Z,90.80
2019-03-08T13:47:45.164Z,91.10
2019-03-08T13:50:29.516Z,90.80
2019-03-08T13:53:02.706Z,91.60
2019-03-08T13:58:39.631Z,92.20
2019-03-08T14:01:24.347Z,91.00
2019-03-08T14:04:08.520Z,91.30
2019-03-08T14:09:59.048Z,90.80
2019-03-08T14:12:31.301Z,90.30
2019-03-08T14:15:12.232Z,90.70
2019-03-08T14:17:58.066Z,90.00
2019-03-08T14:20:42.505Z,90.20
2019-03-08T14:23:27.465Z,90.70
2019-03-08T14:26:11.672Z,90.70
2019-03-08T14:28:57.539Z,88.50
2019-03-08T14:34:39.390Z,90.10
2019-03-08T14:37:42.936Z,90.10
2019-03-08T14:40:47.039Z,89.70
2019-03-08T14:43:53.852Z,89.60
2019-03-08T14:46:53.080Z,90.70
2019-03-08T14:49:50.425Z,90.90
2019-03-08T14:52:34.813Z,91.60
2019-03-08T14:55:22.654Z,91.70
2019-03-08T14:58:07.220Z,92.20
2019-03-08T15:00:52.188Z,91.30
2019-03-08T15:03:43.266Z,90.50
2019-03-08T15:06:28.445Z,91.00
2019-03-08T15:12:16.736Z,91.30
2019-03-08T15:15:02.258Z,91.90
2019-03-08T15:17:49.750Z,91.30
2019-03-08T15:20:35.508Z,91.80
2019-03-08T15:23:19.327Z,93.20
2019-03-08T15:26:04.215Z,92.70
2019-03-08T15:28:50.422Z,92.40
2019-03-08T15:31:22.671Z,92.90
2019-03-08T15:34:07.819Z,92.60
2019-03-08T15:36:51.808Z,92.20
2019-03-08T15:39:36.695Z,92.50
2019-03-08T15:42:21.516Z,92.30
2019-03-08T15:45:06.091Z,93.10
2019-03-08T15:47:52.756Z,93.30
2019-03-08T15:50:38.625Z,93.00
2019-03-08T15:53:22.158Z,91.60
2019-03-08T15:56:07.975Z,92.90
2019-03-08T15:58:52.698Z,92.60
2019-03-08T16:01:37.316Z,93.40
2019-03-08T16:04:22.743Z,92.90
2019-03-08T16:07:07.256Z,92.30
2019-03-08T16:12:45.780Z,93.00
2019-03-08T16:18:17.889Z,93.30
2019-03-08T16:20:50.167Z,93.20
2019-03-08T16:23:34.167Z,94.00
2019-03-08T16:26:21.196Z,93.40
2019-03-08T16:29:04.435Z,93.90
2019-03-08T16:34:52.172Z,94.40
2019-03-08T16:38:00.294Z,94.60
2019-03-08T16:40:52.063Z,94.60
2019-03-08T16:46:31.353Z,94.60
2019-03-08T16:49:34.569Z,95.20
2019-03-08T16:55:44.772Z,95.40
2019-03-08T16:58:49.366Z,95.20
2019-03-08T17:01:55.225Z,95.40
2019-03-08T17:04:50.772Z,95.60
2019-03-08T17:07:47.517Z,96.10
2019-03-08T17:10:53.912Z,96.40
2019-03-08T17:13:57.304Z,97.70
2019-03-08T17:17:04.802Z,97.10
2019-03-08T17:20:12.270Z,98.60
2019-03-08T17:26:15.239Z,98.30
2019-03-08T17:29:18.735Z,99.10
2019-03-08T17:32:11.599Z,98.30
2019-03-08T17:35:02.980Z,98.40
2019-03-08T17:37:54.234Z,98.30
2019-03-08T17:44:07.187Z,98.10
2019-03-08T17:47:16.494Z,98.40
2019-03-08T17:50:17.854Z,97.90
2019-03-08T17:56:29.121Z,97.50
2019-03-08T18:02:41.477Z,97.70
2019-03-08T18:05:45.695Z,98.20
2019-03-08T18:12:17.382Z,97.70
2019-03-08T18:15:21.809Z,97.80
2019-03-08T18:18:27.775Z,97.80
2019-03-08T18:21:31.785Z,97.90
2019-03-08T18:24:41.426Z,97.90
2019-03-08T18:27:41.962Z,98.30
2019-03-08T18:30:38.394Z,98.20
2019-03-08T18:33:42.118Z,98.40
2019-03-08T18:36:33.150Z,98.30
2019-03-08T18:39:37.156Z,98.30
2019-03-08T18:42:40.082Z,98.20
2019-03-08T18:45:45.691Z,98.10
2019-03-08T18:48:35.778Z,98.10
2019-03-08T18:51:26.913Z,98.20
2019-03-08T18:54:21.990Z,98.40
2019-03-08T18:57:26.439Z,98.50
2019-03-08T19:00:31.150Z,97.70
2019-03-08T19:03:34.973Z,97.90
2019-03-08T19:06:26.692Z,97.30
2019-03-08T19:09:42.577Z,96.90
2019-03-08T19:12:46.174Z,96.40
2019-03-08T19:15:53.203Z,96.00
2019-03-08T19:18:45.942Z,96.50
2019-03-08T19:32:44.390Z,97.90
2019-03-08T19:38:58.104Z,97.90
2019-03-08T19:41:58.892Z,98.10
2019-03-08T19:44:53.783Z,97.80
2019-03-08T19:47:56.730Z,98.50
2019-03-08T19:51:02.078Z,98.40
2019-03-08T19:53:53.310Z,98.40
2019-03-08T19:56:44.743Z,98.60
2019-03-08T19:59:36.935Z,98.70
2019-03-08T20:02:31.069Z,98.70
2019-03-08T20:05:22.213Z,98.90
2019-03-08T20:11:33.911Z,99.10
2019-03-08T20:17:24.735Z,98.90
2019-03-08T20:23:35.710Z,99.00
2019-03-08T20:32:08.366Z,99.00
2019-03-08T20:37:49.765Z,98.90
2019-03-08T20:43:38.186Z,98.60
2019-03-08T20:49:17.063Z,98.80
2019-03-08T20:52:01.154Z,98.40
2019-03-08T20:54:34.505Z,98.60
2019-03-08T20:59:53.761Z,98.80
2019-03-08T21:02:26.253Z,98.60
2019-03-08T21:05:11.359Z,98.50
2019-03-08T21:07:55.680Z,98.60
2019-03-08T21:10:40.949Z,98.60
2019-03-08T21:13:26.466Z,98.60
2019-03-08T21:16:11.238Z,98.70
2019-03-08T21:21:41.817Z,98.90
2019-03-08T21:24:27.285Z,98.80
2019-03-08T21:27:11.316Z,98.90
2019-03-08T21:29:55.853Z,99.10
2019-03-08T21:35:29.191Z,99.10
2019-03-08T21:38:13.892Z,99.00
2019-03-08T21:40:59.309Z,99.30
2019-03-08T21:43:43.597Z,99.40
2019-03-08T21:46:28.789Z,99.30
2019-03-08T21:49:14.357Z,99.40
2019-03-08T21:52:00.294Z,99.50
2019-03-08T21:54:45.672Z,99.50
2019-03-08T21:57:30.557Z,99.50
2019-03-08T22:00:02.994Z,99.70
2019-03-08T22:03:01.531Z,99.80
2019-03-08T22:05:45.849Z,99.80
2019-03-08T22:11:37.033Z,99.70
2019-03-08T22:14:21.277Z,99.90
2019-03-08T22:17:06.806Z,99.80
2019-03-08T22:19:52.104Z,99.90
2019-03-08T22:22:37.234Z,99.90
2019-03-08T22:25:22.932Z,99.90
2019-03-08T22:28:06.985Z,99.70
2019-03-08T22:33:28.058Z,99.90
2019-03-08T22:36:12.812Z,99.90
2019-03-08T22:39:01.795Z,99.90
2019-03-08T22:41:46.846Z,99.90
2019-03-08T22:44:32.534Z,99.90
2019-03-08T22:47:16.544Z,99.90
2019-03-08T22:49:49.221Z,99.90
2019-03-08T22:52:34.139Z,99.90
2019-03-08T22:55:18.410Z,99.90
2019-03-08T22:57:50.846Z,99.90
2019-03-08T23:00:54.655Z,99.90
2019-03-08T23:03:51.988Z,99.90
2019-03-08T23:06:36.760Z,99.90
2019-03-08T23:09:21.042Z,99.90
2019-03-08T23:17:20.609Z,99.90
2019-03-08T23:20:05.082Z,99.90
2019-03-08T23:22:49.983Z,99.90
2019-03-08T23:25:35.760Z,99.90
2019-03-08T23:31:43.452Z,99.90
2019-03-08T23:34:28.382Z,99.90
2019-03-08T23:37:12.313Z,99.90
2019-03-08T23:39:57.943Z,99.90
2019-03-08T23:42:42.161Z,99.90
2019-03-08T23:48:13.153Z,99.90
2019-03-08T23:53:44.708Z,99.90
2019-03-08T23:56:28.770Z,99.90
2019-03-08T23:59:13.067Z,99.90
